Star City, WV (26504)

10:40 AM EDT on May 27, 2015 (GMT -0400)
WVU Evansdale NRCCE | | Change Station
CLOSE
Current Station
Personal Weather Station
Location: Morgantown, WV
Elevation: 1115 ft
Nearby Weather Stations

Elev 1115 ft 39.65 °N, 79.97 °W | Updated 3 seconds ago

Overcast
Overcast
69.6 °F
Feels Like 69.6 °F
N
2.0
Wind Variable Wind from SSW
Gusts 6.0 mph

Today
High -- | Low -- °F
--% Chance of Precip.
Yesterday
High -- | Low -- °F
Precip. -- in
5:56 AM 8:37 PM
Waxing Gibbous, 67% visible
Pressure 30.20 in
Visibility 10.0 miles
Clouds Scattered Clouds 800 ft
Mostly Cloudy 1400 ft
Mostly Cloudy 2800 ft
Dew Point 66 °F
Humidity 89%
Rainfall 0.09 in
Snow Depth Not available.
UV 4 out of 12
Pollen 2.10 out of 12
Air Quality Not available.
Flu Activity Sporadic
SPECI KMGW 271417Z 23005KT 10SM SCT008 BKN014 BKN028 21/18 A3020 RMK AO2 T02110183

More Conditions Fewer Conditions

Pressure 30.20 in
Visibility 10.0 miles
Clouds Scattered Clouds 800 ft
Mostly Cloudy 1400 ft
Mostly Cloudy 2800 ft
Dew Point 66 °F
Humidity 89%
Rainfall 0.09 in
Snow Depth Not available.
UV 4 out of 12
Pollen 2.10 out of 12
Air Quality Not available.
Flu Activity Sporadic
SPECI KMGW 271417Z 23005KT 10SM SCT008 BKN014 BKN028 21/18 A3020 RMK AO2 T02110183

More Conditions Fewer Conditions

10-Day Weather Forecast

Almanac

Astronomy

May. 27, 2015 Rise Set
Actual Time
Civil Twilight
Nautical Twilight
Astronomical Twilight
Moon
Length of Visible Light
Length of Day
Tomorrow will be .
, % of the Moon is Illuminated

Today's Extremes

State Highs State Lows

Community

WunderPhotos

Upload Photos

1,824,690 photos uploaded!

WunderBlogs® & News

Nearby

Air Quality

  Air Quality AQ Index Pollutant
Not available.

Snow Depth

Station Depth Elevation

Earthquake Activity

City Distance Mag. Time & Date
Minimum magnitude displayed is 2.5.

Coastal Water Temperatures

Place Temperature

Stations

Nearby Weather Stations

Station Location Temp. Windchill Dew Point Humidity Wind Precip. Elev Updated Type